Time;durP1;ratioP1;P1;durP2;ratioP2;P2;SDS_P1;SDS_P2;PMS_P1;PMS_P2;Temp;Humidity;BMP_temperature;BMP_pressure;BME280_temperature;BME280_humidity;BME280_pressure;Samples;Min_cycle;Max_cycle;Signal;HPM_P1;HPM_P2
2023/12/20 06:13:52;;;;;;;3.95;2.50;;;5.30;99.90;;;;;;7584474;19;21298;-74
2023/12/20 06:16:25;;;;;;;4.10;2.80;;;5.00;99.90;;;;;;7604832;19;20044;-71
2023/12/20 06:18:57;;;;;;;5.05;3.25;;;5.00;99.90;;;;;;7613892;19;20394;-74
2023/12/20 06:21:29;;;;;;;2.75;2.20;;;5.00;99.90;;;;;;7623104;19;20018;-71
2023/12/20 06:26:46;;;;;;;2.25;1.95;;;5.10;99.90;;;;;;7625294;19;21593;-71
2023/12/20 06:29:19;;;;;;;3.78;2.75;;;5.10;99.90;;;;;;7572013;19;20881;-72
2023/12/20 06:31:51;;;;;;;3.58;2.50;;;5.10;99.90;;;;;;7581935;19;20013;-71
2023/12/20 06:34:24;;;;;;;4.93;2.58;;;5.10;99.90;;;;;;7590533;19;21466;-72
2023/12/20 06:36:56;;;;;;;4.28;2.67;;;5.10;99.90;;;;;;7604430;19;20052;-72
2023/12/20 06:39:30;;;;;;;5.45;2.67;;;5.00;99.90;;;;;;7623998;19;20771;-73
2023/12/20 06:42:03;;;;;;;3.85;2.42;;;5.00;99.90;;;;;;7638306;19;20402;-73
2023/12/20 06:44:36;;;;;;;;;;;5.00;99.90;;;;;;7632124;19;20018;-70
2023/12/20 06:47:09;;;;;;;3.28;1.95;;;5.00;99.90;;;;;;7602927;19;19914;-74
2023/12/20 06:49:41;;;;;;;2.97;1.80;;;4.90;99.90;;;;;;7632203;19;20383;-75
2023/12/20 06:52:14;;;;;;;3.33;2.05;;;4.80;99.90;;;;;;7601140;19;20029;-75
2023/12/20 06:54:47;;;;;;;2.92;1.67;;;4.80;99.90;;;;;;7590702;19;20505;-74
2023/12/20 06:57:19;;;;;;;;;;;4.80;99.90;;;;;;7598163;19;20436;-73
2023/12/20 06:59:53;;;;;;;2.20;1.42;;;4.80;99.90;;;;;;7604409;19;19918;-73
2023/12/20 07:02:25;;;;;;;5.18;1.73;;;4.70;99.90;;;;;;7612109;19;20014;-73
2023/12/20 07:04:58;;;;;;;2.13;1.52;;;4.70;99.90;;;;;;7609455;19;20010;-73
2023/12/20 07:07:30;;;;;;;2.33;1.55;;;4.70;99.90;;;;;;7601865;19;20018;-74
2023/12/20 07:10:06;;;;;;;1.98;1.42;;;4.70;99.90;;;;;;7613438;19;20342;-73
2023/12/20 07:12:48;;;;;;;3.05;1.77;;;4.70;99.90;;;;;;7630703;19;20022;-74
2023/12/20 07:15:22;;;;;;;4.18;1.42;;;4.70;99.90;;;;;;7607226;19;20133;-74
2023/12/20 07:17:56;;;;;;;6.65;2.20;;;4.60;99.90;;;;;;7597509;19;20014;-73
2023/12/20 07:20:29;;;;;;;4.07;2.10;;;4.60;99.90;;;;;;7602466;19;20022;-73
2023/12/20 07:23:01;;;;;;;2.00;1.40;;;4.60;99.90;;;;;;7610220;19;21130;-73
2023/12/20 07:25:34;;;;;;;2.67;1.80;;;4.60;99.90;;;;;;7612451;19;20010;-73
2023/12/20 07:28:06;;;;;;;1.60;1.40;;;4.60;99.90;;;;;;7620029;19;20022;-73
2023/12/20 07:30:39;;;;;;;2.13;1.35;;;4.50;99.90;;;;;;7611714;19;20051;-74
2023/12/20 07:33:12;;;;;;;2.00;1.60;;;4.50;99.90;;;;;;7619555;19;20089;-74
2023/12/20 07:35:45;;;;;;;2.03;1.40;;;4.50;99.90;;;;;;7629633;19;20589;-73
2023/12/20 07:38:18;;;;;;;3.15;1.95;;;4.50;99.90;;;;;;7577071;19;20015;-73
2023/12/20 07:40:50;;;;;;;5.88;2.33;;;4.50;99.90;;;;;;7577282;19;20034;-73
2023/12/20 07:43:23;;;;;;;2.53;1.70;;;4.50;99.90;;;;;;7581459;19;20022;-74
2023/12/20 07:45:55;;;;;;;6.60;2.75;;;4.50;99.90;;;;;;7548415;19;20671;-73
2023/12/20 07:48:28;;;;;;;3.47;1.65;;;4.50;99.90;;;;;;7569174;19;20010;-74
2023/12/20 07:51:01;;;;;;;2.88;1.90;;;4.50;99.90;;;;;;7583473;19;20014;-73
2023/12/20 07:53:34;;;;;;;3.65;2.00;;;4.50;99.90;;;;;;7588445;19;20009;-74
2023/12/20 07:56:16;;;;;;;4.15;1.75;;;4.60;99.90;;;;;;7583950;19;20026;-73
2023/12/20 07:58:49;;;;;;;2.45;1.52;;;4.50;99.90;;;;;;7558004;19;20019;-72
2023/12/20 08:01:25;;;;;;;4.15;1.80;;;4.50;99.90;;;;;;7569975;19;20018;-71
2023/12/20 08:03:57;;;;;;;4.07;1.90;;;4.50;99.90;;;;;;7582174;19;20159;-74
2023/12/20 08:06:29;;;;;;;3.50;1.90;;;4.50;99.90;;;;;;7597317;19;20500;-72
2023/12/20 08:09:05;;;;;;;3.78;2.17;;;4.60;99.90;;;;;;7611725;19;20038;-72
2023/12/20 08:11:39;;;;;;;3.45;1.50;;;4.60;99.90;;;;;;7607862;19;20030;-72
2023/12/20 08:14:13;;;;;;;;;;;4.60;99.90;;;;;;7592162;19;20677;-72
2023/12/20 08:16:47;;;;;;;2.42;1.52;;;4.70;99.90;;;;;;7607445;19;19946;-73
2023/12/20 08:19:21;;;;;;;1.92;1.50;;;4.60;99.90;;;;;;7587839;19;20018;-73
2023/12/20 08:21:54;;;;;;;2.22;1.55;;;4.60;99.90;;;;;;7578910;19;20030;-73
2023/12/20 08:24:27;;;;;;;1.40;1.10;;;4.60;99.90;;;;;;7578422;19;20098;-72
2023/12/20 08:26:59;;;;;;;2.05;1.27;;;4.60;99.90;;;;;;7578158;19;20111;-72
2023/12/20 08:29:31;;;;;;;2.25;1.40;;;4.60;99.90;;;;;;7566756;19;20470;-71
2023/12/20 08:32:04;;;;;;;3.13;1.23;;;4.70;99.90;;;;;;7578521;19;20142;-73
2023/12/20 08:34:37;;;;;;;2.40;1.65;;;4.70;99.90;;;;;;7572816;19;20097;-72
2023/12/20 08:37:09;;;;;;;0.97;0.80;;;4.70;99.90;;;;;;7563428;19;20014;-72
2023/12/20 08:39:43;;;;;;;1.98;1.20;;;4.80;99.90;;;;;;7555260;19;20302;-72
2023/12/20 08:42:17;;;;;;;2.35;1.10;;;4.80;99.90;;;;;;7560477;19;20030;-72
2023/12/20 08:44:49;;;;;;;5.93;1.40;;;4.80;99.90;;;;;;7554719;19;20019;-72
2023/12/20 08:47:21;;;;;;;1.88;1.65;;;4.80;99.90;;;;;;7573636;19;20729;-72
2023/12/20 08:49:56;;;;;;;2.20;1.33;;;4.70;99.90;;;;;;7597055;19;21117;-73
2023/12/20 08:52:29;;;;;;;1.88;1.30;;;4.70;99.90;;;;;;7589668;19;20018;-72
2023/12/20 08:55:01;;;;;;;1.77;1.20;;;4.70;99.90;;;;;;7567206;19;20550;-72
2023/12/20 08:57:34;;;;;;;2.10;1.40;;;4.70;99.90;;;;;;7582476;19;20018;-73
2023/12/20 09:00:08;;;;;;;2.20;1.40;;;4.70;99.90;;;;;;7579732;19;20026;-72
2023/12/20 09:02:41;;;;;;;2.58;1.40;;;4.70;99.90;;;;;;7583205;19;20830;-72
2023/12/20 09:05:14;;;;;;;2.30;1.48;;;4.70;99.90;;;;;;7576328;19;20026;-72
2023/12/20 09:07:46;;;;;;;2.77;1.33;;;4.70;99.90;;;;;;7593616;19;20041;-72
2023/12/20 09:10:22;;;;;;;1.08;0.95;;;4.80;99.90;;;;;;7579751;19;21092;-72
2023/12/20 09:12:56;;;;;;;1.48;1.10;;;4.80;99.90;;;;;;7562725;19;20122;-72
2023/12/20 09:15:30;;;;;;;2.10;1.38;;;4.80;99.90;;;;;;7559574;19;20029;-72
2023/12/20 09:18:06;;;;;;;1.13;0.95;;;4.80;99.90;;;;;;7539390;19;20018;-72
2023/12/20 09:20:39;;;;;;;2.67;1.17;;;4.90;99.90;;;;;;7560698;19;20399;-72
2023/12/20 09:23:15;;;;;;;2.35;0.70;;;4.90;99.90;;;;;;7552254;19;20048;-71
2023/12/20 09:25:47;;;;;;;2.20;1.50;;;4.90;99.90;;;;;;7550713;19;20010;-71
2023/12/20 09:28:20;;;;;;;1.67;1.20;;;4.90;99.90;;;;;;7551764;19;20040;-72
2023/12/20 09:30:53;;;;;;;;;;;5.00;99.90;;;;;;7558387;19;20059;-71
2023/12/20 09:33:26;;;;;;;1.75;0.90;;;5.00;99.90;;;;;;7574798;19;21480;-72
2023/12/20 09:35:59;;;;;;;1.00;0.90;;;5.00;99.90;;;;;;7586707;19;20056;-74
2023/12/20 09:38:31;;;;;;;3.08;1.30;;;5.00;99.90;;;;;;7576253;19;20019;-73
2023/12/20 09:41:05;;;;;;;2.55;1.30;;;5.00;99.90;;;;;;7574969;19;20018;-73
2023/12/20 09:43:37;;;;;;;;;;;5.00;99.90;;;;;;7567547;19;20760;-72
2023/12/20 09:46:15;;;;;;;1.50;0.95;;;5.00;99.90;;;;;;7565720;19;19974;-72
2023/12/20 09:48:48;;;;;;;1.48;1.20;;;5.10;99.90;;;;;;7598909;19;20011;-72
2023/12/20 09:51:21;;;;;;;1.15;1.05;;;5.10;99.90;;;;;;7582535;19;20022;-73
2023/12/20 09:53:55;;;;;;;2.10;0.93;;;5.10;99.90;;;;;;7588482;19;20018;-72
2023/12/20 09:56:29;;;;;;;2.95;1.42;;;5.10;99.90;;;;;;7578009;19;20021;-72
2023/12/20 09:59:01;;;;;;;1.60;1.50;;;5.10;99.90;;;;;;7581043;19;20057;-72
2023/12/20 10:01:36;;;;;;;1.23;0.80;;;5.10;99.90;;;;;;7568384;19;20029;-72
2023/12/20 10:04:12;;;;;;;2.13;1.10;;;5.10;99.90;;;;;;7577133;19;20022;-72
2023/12/20 10:07:05;;;;;;;1.38;1.10;;;5.20;99.90;;;;;;7585501;19;20025;-73
2023/12/20 10:09:38;;;;;;;1.67;1.17;;;5.10;99.90;;;;;;7584070;19;20021;-72
2023/12/20 10:12:11;;;;;;;1.45;0.95;;;5.20;99.90;;;;;;7576987;19;20451;-73
2023/12/20 10:14:43;;;;;;;2.22;1.27;;;5.20;99.90;;;;;;7562083;19;20019;-74
2023/12/20 10:17:15;;;;;;;1.98;1.27;;;5.20;99.90;;;;;;7542342;19;20018;-72
2023/12/20 10:19:48;;;;;;;2.35;1.33;;;5.30;99.90;;;;;;7560725;19;20011;-73
2023/12/20 10:22:21;;;;;;;4.40;1.55;;;5.30;99.90;;;;;;7560336;19;20018;-71
2023/12/20 10:24:56;;;;;;;2.22;1.73;;;5.30;99.90;;;;;;7567515;19;20015;-73
2023/12/20 10:27:28;;;;;;;1.58;1.40;;;5.40;99.90;;;;;;7559532;19;20906;-72
2023/12/20 10:30:00;;;;;;;1.60;1.45;;;5.40;99.90;;;;;;7590203;19;20101;-72
2023/12/20 10:32:33;;;;;;;2.22;1.60;;;5.40;99.90;;;;;;7585047;19;20561;-73
2023/12/20 10:35:07;;;;;;;2.92;2.10;;;5.50;99.90;;;;;;7593555;19;20018;-73
2023/12/20 10:37:39;;;;;;;;;;;5.50;99.90;;;;;;7587123;19;20450;-72
2023/12/20 10:40:13;;;;;;;1.48;1.38;;;5.70;99.90;;;;;;7590469;19;20867;-72
2023/12/20 10:42:46;;;;;;;1.33;1.23;;;5.70;99.90;;;;;;7569372;19;20019;-72
2023/12/20 10:45:19;;;;;;;1.65;1.40;;;5.70;99.90;;;;;;7547006;19;21006;-72
2023/12/20 10:47:51;;;;;;;1.23;1.10;;;5.80;99.90;;;;;;7589622;19;20040;-72
2023/12/20 10:50:24;;;;;;;2.05;1.45;;;5.80;99.90;;;;;;7601682;19;20382;-73
2023/12/20 10:52:58;;;;;;;2.30;1.20;;;5.80;99.90;;;;;;7596560;19;20110;-72
2023/12/20 10:55:30;;;;;;;1.67;1.20;;;5.90;99.90;;;;;;7582266;19;20975;-72
2023/12/20 10:58:08;;;;;;;1.20;1.10;;;5.90;99.90;;;;;;7559033;19;20011;-72
2023/12/20 11:00:43;;;;;;;1.65;1.35;;;5.90;99.90;;;;;;7538387;19;20018;-73
2023/12/20 11:03:17;;;;;;;2.17;1.48;;;5.90;99.90;;;;;;7542337;19;20014;-71
2023/12/20 11:05:51;;;;;;;1.20;1.08;;;5.90;99.90;;;;;;7558463;19;21177;-74
2023/12/20 11:08:52;;;;;;;2.30;1.38;;;5.90;99.90;;;;;;7552265;19;20014;-71
2023/12/20 11:11:39;;;;;;;2.40;1.17;;;5.90;99.90;;;;;;7569498;19;20015;-72
2023/12/20 11:14:25;;;;;;;3.13;1.70;;;6.00;99.90;;;;;;7564287;19;20018;-71
2023/12/20 11:17:07;;;;;;;3.85;1.70;;;6.00;99.90;;;;;;7545173;19;20029;-72
2023/12/20 11:19:58;;;;;;;2.58;1.52;;;5.90;99.90;;;;;;7578800;19;20152;-72
2023/12/20 11:22:32;;;;;;;1.77;1.50;;;5.90;99.90;;;;;;7557806;19;20018;-73
2023/12/20 11:25:10;;;;;;;2.25;1.85;;;5.90;99.90;;;;;;7574158;19;20825;-71
2023/12/20 11:27:44;;;;;;;4.15;1.50;;;5.90;99.90;;;;;;7571438;19;20066;-71
2023/12/20 11:30:20;;;;;;;2.00;1.60;;;5.90;99.90;;;;;;7565515;19;20010;-72
2023/12/20 11:32:55;;;;;;;2.75;2.05;;;5.90;99.90;;;;;;7554169;19;20022;-72
2023/12/20 11:35:28;;;;;;;2.47;1.80;;;5.80;99.90;;;;;;7570940;19;20018;-72
2023/12/20 11:38:00;;;;;;;2.67;2.22;;;5.80;99.90;;;;;;7552845;19;20945;-71
2023/12/20 11:40:34;;;;;;;2.17;1.77;;;5.80;99.90;;;;;;7580956;19;21461;-72
2023/12/20 11:43:07;;;;;;;3.80;2.17;;;5.80;99.90;;;;;;7588508;19;20825;-72
2023/12/20 11:45:50;;;;;;;2.25;1.80;;;5.80;99.90;;;;;;7544624;19;20007;-74
2023/12/20 11:48:22;;;;;;;2.67;2.10;;;5.80;99.90;;;;;;7551611;19;20014;-73
2023/12/20 11:50:55;;;;;;;4.25;1.85;;;5.70;99.90;;;;;;7559840;19;21398;-74
2023/12/20 11:53:27;;;;;;;3.70;2.50;;;5.70;99.90;;;;;;7546956;19;20018;-74
2023/12/20 11:56:02;;;;;;;3.47;2.10;;;5.70;99.90;;;;;;7564409;19;20024;-74
2023/12/20 11:58:35;;;;;;;2.75;2.20;;;5.70;99.90;;;;;;7551622;19;20033;-74
2023/12/20 12:01:08;;;;;;;2.88;2.15;;;5.70;99.90;;;;;;7565132;19;20730;-73
2023/12/20 12:03:42;;;;;;;2.28;1.80;;;5.80;99.90;;;;;;7560614;19;20011;-73
2023/12/20 12:06:15;;;;;;;3.00;1.98;;;5.90;99.90;;;;;;7559929;19;20022;-74
2023/12/20 12:08:47;;;;;;;2.22;1.73;;;5.90;99.90;;;;;;7575876;19;20276;-71
2023/12/20 12:11:20;;;;;;;2.13;1.63;;;6.00;99.90;;;;;;7593250;19;20476;-74
2023/12/20 12:13:52;;;;;;;2.80;1.77;;;6.00;99.90;;;;;;7583247;19;20018;-71
2023/12/20 12:16:25;;;;;;;1.95;1.35;;;5.90;99.90;;;;;;7548205;19;20029;-72
2023/12/20 12:18:58;;;;;;;1.70;1.45;;;5.90;99.90;;;;;;7556492;19;20011;-72
2023/12/20 12:21:31;;;;;;;2.17;1.77;;;5.80;99.90;;;;;;7558568;19;20018;-71
2023/12/20 12:24:09;;;;;;;2.22;1.38;;;5.90;99.90;;;;;;7572613;19;20023;-72
2023/12/20 12:26:42;;;;;;;1.35;1.25;;;5.80;99.90;;;;;;7590996;19;20018;-71
2023/12/20 12:29:14;;;;;;;2.78;1.40;;;5.80;99.90;;;;;;7587661;19;20022;-71
2023/12/20 12:31:46;;;;;;;16.50;9.20;;;5.80;99.90;;;;;;7595246;19;20472;-71
2023/12/20 12:34:19;;;;;;;2.22;1.77;;;5.70;99.90;;;;;;7595461;19;20018;-72
2023/12/20 12:36:52;;;;;;;2.38;1.90;;;5.80;99.90;;;;;;7596278;19;20014;-71
2023/12/20 12:39:27;;;;;;;3.10;1.87;;;5.60;99.90;;;;;;7582992;19;20018;-72
2023/12/20 12:41:59;;;;;;;3.30;1.45;;;5.70;99.90;;;;;;7596190;19;21522;-71
2023/12/20 12:44:31;;;;;;;2.72;1.52;;;5.70;99.90;;;;;;7572426;19;20015;-73
2023/12/20 12:47:05;;;;;;;2.53;1.67;;;5.70;99.90;;;;;;7566931;19;20543;-72
2023/12/20 12:49:39;;;;;;;;;;;5.70;99.90;;;;;;7570503;19;20018;-70
2023/12/20 12:52:11;;;;;;;2.33;1.40;;;5.70;99.90;;;;;;7592168;19;20422;-72
2023/12/20 12:54:44;;;;;;;2.95;1.75;;;5.70;99.90;;;;;;7582657;19;20026;-72
2023/12/20 12:57:18;;;;;;;2.05;1.55;;;5.70;99.90;;;;;;7564178;19;20743;-75
2023/12/20 12:59:50;;;;;;;2.47;1.85;;;5.70;99.90;;;;;;7558901;19;20017;-72
2023/12/20 13:02:23;;;;;;;2.13;1.70;;;5.70;99.90;;;;;;7557704;19;20630;-73
2023/12/20 13:04:55;;;;;;;1.88;1.55;;;5.60;99.90;;;;;;7542691;19;20026;-72
2023/12/20 13:07:28;;;;;;;1.90;1.40;;;5.70;99.90;;;;;;7535137;19;20014;-72
2023/12/20 13:10:01;;;;;;;2.33;1.60;;;5.60;99.90;;;;;;7552848;19;20830;-72
2023/12/20 13:12:33;;;;;;;2.08;1.48;;;5.70;99.90;;;;;;7560586;19;20018;-72
2023/12/20 13:15:06;;;;;;;2.35;1.63;;;5.80;99.90;;;;;;7555492;19;20701;-72
2023/12/20 13:17:38;;;;;;;2.22;1.58;;;5.80;99.90;;;;;;7545605;19;20718;-72
2023/12/20 13:20:11;;;;;;;2.50;1.55;;;5.90;99.90;;;;;;7559031;19;20089;-72
2023/12/20 13:22:44;;;;;;;5.30;2.67;;;6.00;99.90;;;;;;7556588;19;20941;-72
2023/12/20 13:25:16;;;;;;;5.93;3.17;;;6.00;99.90;;;;;;7563059;19;20504;-73
2023/12/20 13:27:49;;;;;;;8.75;4.03;;;6.00;99.90;;;;;;7558243;19;20015;-72
2023/12/20 13:30:22;;;;;;;9.03;4.37;;;6.00;99.90;;;;;;7548636;19;20029;-72
2023/12/20 13:32:55;;;;;;;6.03;3.25;;;5.90;99.90;;;;;;7559464;19;20236;-72
2023/12/20 13:35:27;;;;;;;3.35;2.38;;;5.90;99.90;;;;;;7551390;19;20691;-72
2023/12/20 13:38:01;;;;;;;6.82;3.03;;;5.90;99.90;;;;;;7550239;19;20368;-74
2023/12/20 13:40:33;;;;;;;5.15;3.08;;;5.80;99.90;;;;;;7558552;19;20022;-71
2023/12/20 13:43:06;;;;;;;4.78;2.95;;;5.70;99.90;;;;;;7567517;19;20018;-72
2023/12/20 13:45:38;;;;;;;4.63;2.72;;;5.60;99.90;;;;;;7539779;19;26054;-73
2023/12/20 13:48:11;;;;;;;5.25;3.20;;;5.50;99.90;;;;;;7528170;19;20054;-73
2023/12/20 13:50:44;;;;;;;4.30;3.00;;;5.30;99.90;;;;;;7546351;19;20010;-72
2023/12/20 13:53:16;;;;;;;7.85;3.50;;;5.20;99.90;;;;;;7557067;19;20014;-73
2023/12/20 13:55:49;;;;;;;6.18;3.40;;;5.00;99.90;;;;;;7561025;19;20022;-72
2023/12/20 13:58:22;;;;;;;7.53;3.08;;;4.90;99.90;;;;;;7589645;19;20014;-72
2023/12/20 14:00:54;;;;;;;5.63;3.65;;;4.90;99.90;;;;;;7575763;19;20010;-71
2023/12/20 14:03:26;;;;;;;5.82;3.63;;;4.80;99.90;;;;;;7574048;19;20050;-73
2023/12/20 14:05:59;;;;;;;6.57;3.85;;;4.70;99.90;;;;;;7551575;19;20010;-71
2023/12/20 14:08:32;;;;;;;7.75;3.88;;;4.70;99.90;;;;;;7566314;19;20011;-71
2023/12/20 14:11:04;;;;;;;9.38;4.30;;;4.70;99.90;;;;;;7552493;19;20090;-75
2023/12/20 14:13:37;;;;;;;6.90;4.25;;;4.60;99.90;;;;;;7560541;19;20029;-72
2023/12/20 14:16:10;;;;;;;9.23;3.90;;;4.60;99.90;;;;;;7563578;19;20018;-72
2023/12/20 14:18:43;;;;;;;5.22;3.53;;;4.60;99.90;;;;;;7549691;19;20090;-73
2023/12/20 14:21:15;;;;;;;9.23;3.45;;;4.60;99.90;;;;;;7562290;19;20104;-74
2023/12/20 14:23:47;;;;;;;7.93;3.72;;;4.70;99.90;;;;;;7537437;19;21032;-74
2023/12/20 14:26:21;;;;;;;12.55;5.57;;;4.80;99.90;;;;;;7549238;19;20014;-71
2023/12/20 14:28:53;;;;;;;11.80;5.43;;;4.80;99.90;;;;;;7563250;19;20022;-72
2023/12/20 14:31:26;;;;;;;9.25;4.70;;;4.80;99.90;;;;;;7547668;19;20010;-72
2023/12/20 14:33:59;;;;;;;6.45;3.33;;;4.80;99.90;;;;;;7580434;19;20010;-71
2023/12/20 14:36:31;;;;;;;9.07;3.75;;;4.80;99.90;;;;;;7596499;19;20447;-72
2023/12/20 14:39:04;;;;;;;9.52;4.05;;;4.80;99.90;;;;;;7578281;19;20022;-73
2023/12/20 14:41:37;;;;;;;7.88;3.60;;;4.80;99.90;;;;;;7553239;19;20110;-71
2023/12/20 14:44:10;;;;;;;;;;;4.80;99.90;;;;;;7554214;19;20019;-73
2023/12/20 14:46:42;;;;;;;9.10;4.38;;;4.80;99.90;;;;;;7547801;19;19951;-72
2023/12/20 14:49:14;;;;;;;10.30;4.25;;;4.80;99.90;;;;;;7546769;19;20033;-75
2023/12/20 14:51:47;;;;;;;10.95;4.43;;;4.80;99.90;;;;;;7553920;19;20534;-72
2023/12/20 14:54:20;;;;;;;12.02;4.95;;;4.70;99.90;;;;;;7551209;19;20046;-72
2023/12/20 14:56:54;;;;;;;8.55;4.80;;;4.70;99.90;;;;;;7567269;19;20011;-71
2023/12/20 14:59:26;;;;;;;13.02;4.20;;;4.70;99.90;;;;;;7592627;19;20455;-71
2023/12/20 15:01:58;;;;;;;9.55;4.63;;;4.70;99.90;;;;;;7545790;19;20011;-71
2023/12/20 15:04:31;;;;;;;10.90;5.07;;;4.70;99.90;;;;;;7568440;19;20484;-72
2023/12/20 15:07:06;;;;;;;11.60;4.25;;;4.70;99.90;;;;;;7588086;19;22116;-72
2023/12/20 15:09:38;;;;;;;12.45;5.28;;;4.60;99.90;;;;;;7591476;19;20018;-74
2023/12/20 15:12:11;;;;;;;11.30;4.07;;;4.60;99.90;;;;;;7578466;19;20407;-74
2023/12/20 15:14:44;;;;;;;10.13;4.00;;;4.70;99.90;;;;;;7582750;19;21740;-72
2023/12/20 15:17:17;;;;;;;8.43;4.05;;;4.70;99.90;;;;;;7582744;19;20027;-71
2023/12/20 15:19:49;;;;;;;8.70;4.55;;;4.70;99.90;;;;;;7565754;19;24954;-72
2023/12/20 15:22:22;;;;;;;10.50;5.13;;;4.70;99.90;;;;;;7564574;19;20048;-71
2023/12/20 15:24:55;;;;;;;4.78;3.20;;;4.70;99.90;;;;;;7565489;19;20058;-70
2023/12/20 15:27:37;;;;;;;10.70;5.10;;;4.70;99.90;;;;;;7390944;19;10000597;-71
2023/12/20 15:30:10;;;;;;;5.72;3.38;;;4.70;99.90;;;;;;7079943;19;9999955;-72
2023/12/20 15:32:42;;;;;;;6.95;3.85;;;4.70;99.90;;;;;;7571555;19;20125;-75
2023/12/20 15:35:15;;;;;;;7.82;3.38;;;4.70;99.90;;;;;;7556736;19;20014;-72
2023/12/20 15:37:48;;;;;;;7.78;4.15;;;4.70;99.90;;;;;;7573793;19;20604;-72
2023/12/20 15:40:21;;;;;;;7.15;3.95;;;4.70;99.90;;;;;;7557839;19;20678;-72
2023/12/20 15:42:53;;;;;;;8.07;3.97;;;4.70;99.90;;;;;;7572493;19;20032;-72
2023/12/20 15:45:26;;;;;;;7.82;3.58;;;4.70;99.90;;;;;;7585573;19;20049;-71
2023/12/20 15:47:59;;;;;;;5.72;2.90;;;4.60;99.90;;;;;;7573246;19;20014;-71
2023/12/20 15:50:31;;;;;;;9.07;4.13;;;4.60;99.90;;;;;;7567066;19;20018;-72
2023/12/20 15:53:04;;;;;;;7.82;3.80;;;4.70;99.90;;;;;;7582094;19;20023;-72
2023/12/20 15:55:37;;;;;;;5.82;3.10;;;4.60;99.90;;;;;;7571303;19;20018;-71
2023/12/20 15:58:09;;;;;;;;;;;4.50;99.90;;;;;;7567525;19;20026;-72
2023/12/20 16:00:42;;;;;;;5.13;2.95;;;4.50;99.90;;;;;;7566364;19;20975;-72
2023/12/20 16:03:14;;;;;;;4.28;2.83;;;4.40;99.90;;;;;;7566284;19;20061;-70
2023/12/20 16:05:58;;;;;;;7.57;2.60;;;4.40;99.90;;;;;;7576271;19;20019;-73
2023/12/20 16:08:31;;;;;;;2.83;2.20;;;4.30;99.90;;;;;;7559064;19;21802;-72
2023/12/20 16:11:04;;;;;;;7.20;2.35;;;4.30;99.90;;;;;;7569515;19;20669;-72
2023/12/20 16:13:36;;;;;;;4.68;2.72;;;4.20;99.90;;;;;;7577936;19;20018;-72
2023/12/20 16:16:09;;;;;;;6.82;3.90;;;4.20;99.90;;;;;;7555559;19;20027;-71
2023/12/20 16:18:41;;;;;;;6.28;3.03;;;4.20;99.90;;;;;;7580922;19;20021;-72
2023/12/20 16:21:14;;;;;;;3.30;2.58;;;4.10;99.90;;;;;;7569688;19;20094;-72
2023/12/20 16:23:46;;;;;;;10.07;2.78;;;4.10;99.90;;;;;;7565195;19;20363;-73
2023/12/20 16:26:18;;;;;;;8.13;3.03;;;4.00;99.90;;;;;;7583500;19;20936;-72
2023/12/20 16:28:51;;;;;;;5.03;3.13;;;3.90;99.90;;;;;;7557805;19;20007;-72
2023/12/20 16:31:23;;;;;;;7.20;3.70;;;4.00;99.90;;;;;;7571429;19;20010;-72
2023/12/20 16:33:56;;;;;;;6.93;2.65;;;4.00;99.90;;;;;;7567074;19;20044;-72
2023/12/20 16:36:49;;;;;;;5.63;2.90;;;4.00;99.90;;;;;;7572317;19;20352;-72
2023/12/20 16:39:22;;;;;;;9.07;3.25;;;4.10;99.90;;;;;;7572809;19;20015;-71
2023/12/20 16:41:56;;;;;;;5.28;3.15;;;4.10;99.90;;;;;;7581724;19;20111;-72
2023/12/20 16:44:28;;;;;;;7.88;3.17;;;4.10;99.90;;;;;;7578170;19;20013;-72
2023/12/20 16:47:00;;;;;;;4.82;2.95;;;4.10;99.90;;;;;;7570268;19;20014;-73
2023/12/20 16:49:33;;;;;;;7.90;3.33;;;4.10;99.90;;;;;;7564792;19;20492;-73
2023/12/20 16:52:05;;;;;;;6.10;3.08;;;4.20;99.90;;;;;;7564306;19;20033;-72
2023/12/20 16:54:38;;;;;;;5.03;3.20;;;4.10;99.90;;;;;;7584331;19;20022;-72
2023/12/20 16:57:10;;;;;;;3.65;2.30;;;4.10;99.90;;;;;;7588752;19;20048;-72
2023/12/20 16:59:43;;;;;;;6.30;3.10;;;4.20;99.90;;;;;;7578557;19;20011;-73
2023/12/20 17:02:16;;;;;;;4.93;2.90;;;4.20;99.90;;;;;;7577985;19;20019;-72
2023/12/20 17:04:48;;;;;;;7.30;3.70;;;4.20;99.90;;;;;;7578971;19;20025;-74
2023/12/20 17:07:20;;;;;;;6.00;3.45;;;4.20;99.90;;;;;;7582990;19;21047;-72
2023/12/20 17:09:53;;;;;;;5.82;3.20;;;4.20;99.90;;;;;;7564436;19;20015;-72
2023/12/20 17:12:25;;;;;;;4.38;2.63;;;4.10;99.90;;;;;;7571599;19;20018;-72
2023/12/20 17:14:59;;;;;;;6.93;3.15;;;4.10;99.90;;;;;;7558781;19;20484;-71
2023/12/20 17:17:32;;;;;;;5.88;3.03;;;4.10;99.90;;;;;;7573967;19;20006;-71
2023/12/20 17:20:05;;;;;;;5.95;4.22;;;4.10;99.90;;;;;;7570749;19;20952;-71
2023/12/20 17:22:38;;;;;;;4.97;2.95;;;4.00;99.90;;;;;;7560583;19;20026;-71
2023/12/20 17:25:11;;;;;;;6.38;3.45;;;4.00;99.90;;;;;;7562443;19;21266;-72
2023/12/20 17:27:45;;;;;;;8.00;3.60;;;4.00;99.90;;;;;;7551172;19;20011;-71
2023/12/20 17:30:18;;;;;;;5.88;3.60;;;4.00;99.90;;;;;;7554842;19;20015;-71
2023/12/20 17:32:51;;;;;;;10.80;3.70;;;4.00;99.90;;;;;;7575052;19;21013;-71
2023/12/20 17:35:23;;;;;;;5.97;3.37;;;4.00;99.90;;;;;;7579254;19;20014;-71
2023/12/20 17:37:55;;;;;;;7.60;4.30;;;3.90;99.90;;;;;;7583675;19;20630;-72
2023/12/20 17:40:28;;;;;;;11.80;4.97;;;3.90;99.90;;;;;;7574778;19;20014;-71
2023/12/20 17:43:00;;;;;;;6.63;3.80;;;4.00;99.90;;;;;;7573923;19;20025;-71
2023/12/20 17:45:32;;;;;;;9.95;4.15;;;4.00;99.90;;;;;;7557959;19;20010;-72
2023/12/20 17:48:05;;;;;;;7.50;3.97;;;4.00;99.90;;;;;;7578716;19;21158;-71
2023/12/20 17:50:37;;;;;;;10.53;4.73;;;3.90;99.90;;;;;;7583553;19;20061;-72
2023/12/20 17:53:10;;;;;;;8.55;3.47;;;4.00;99.90;;;;;;7580133;19;20022;-72
2023/12/20 17:55:42;;;;;;;7.10;4.13;;;4.00;99.90;;;;;;7579385;19;20919;-71
2023/12/20 17:58:15;;;;;;;4.65;2.97;;;3.90;99.90;;;;;;7558721;19;20526;-71
2023/12/20 18:00:50;;;;;;;5.45;3.00;;;4.00;99.90;;;;;;7568087;19;20049;-71
2023/12/20 18:03:22;;;;;;;4.15;2.78;;;4.00;99.90;;;;;;7568790;19;20018;-71
2023/12/20 18:05:54;;;;;;;7.15;2.63;;;4.00;99.90;;;;;;7566035;19;20010;-72
2023/12/20 18:08:27;;;;;;;5.95;2.72;;;4.00;99.90;;;;;;7583677;19;21813;-72
2023/12/20 18:10:59;;;;;;;5.20;2.40;;;4.00;99.90;;;;;;7561666;19;20093;-71
2023/12/20 18:13:31;;;;;;;2.67;2.00;;;4.00;99.90;;;;;;7563931;19;20022;-71
2023/12/20 18:16:09;;;;;;;3.67;2.35;;;4.10;99.90;;;;;;7569531;19;20015;-72
2023/12/20 18:18:42;;;;;;;6.00;2.42;;;4.00;99.90;;;;;;7579624;19;21036;-72
2023/12/20 18:21:14;;;;;;;4.93;1.98;;;4.10;99.90;;;;;;7586287;19;20030;-72
2023/12/20 18:23:46;;;;;;;5.68;1.80;;;3.90;99.90;;;;;;7584599;19;21329;-71
2023/12/20 18:26:21;;;;;;;10.82;2.13;;;3.90;99.90;;;;;;7555598;19;24832;-71
2023/12/20 18:28:53;;;;;;;5.07;1.80;;;3.90;99.90;;;;;;7565032;19;20015;-71
2023/12/20 18:31:26;;;;;;;5.27;1.70;;;3.90;99.90;;;;;;7580991;19;20014;-72
2023/12/20 18:33:58;;;;;;;9.07;1.92;;;3.90;99.90;;;;;;7569429;19;20022;-72
2023/12/20 18:36:31;;;;;;;3.40;1.70;;;3.90;99.90;;;;;;7581681;19;20022;-72
2023/12/20 18:39:04;;;;;;;4.95;1.40;;;3.90;99.90;;;;;;7557026;19;20014;-71
2023/12/20 18:41:36;;;;;;;4.25;2.42;;;3.80;99.90;;;;;;7574393;19;20018;-72
2023/12/20 18:44:08;;;;;;;6.00;1.67;;;3.80;99.90;;;;;;7553249;19;20018;-70
2023/12/20 18:46:41;;;;;;;3.75;2.00;;;3.70;99.90;;;;;;7555655;19;20025;-71
2023/12/20 18:49:14;;;;;;;4.78;2.08;;;3.80;99.90;;;;;;7571925;19;20077;-71
2023/12/20 18:51:46;;;;;;;;;;;3.80;99.90;;;;;;7585123;19;20014;-71
2023/12/20 18:54:20;;;;;;;4.22;1.83;;;3.90;99.90;;;;;;7552881;19;19926;-71
2023/12/20 18:56:53;;;;;;;4.90;2.10;;;3.90;99.90;;;;;;7560413;19;20014;-73
2023/12/20 18:59:26;;;;;;;13.90;5.47;;;3.80;99.90;;;;;;7560531;19;20594;-73
2023/12/20 19:01:59;;;;;;;5.82;2.20;;;3.80;99.90;;;;;;7558604;19;20044;-73
2023/12/20 19:04:32;;;;;;;3.97;2.75;;;3.80;99.90;;;;;;7540622;19;20018;-73
2023/12/20 19:07:05;;;;;;;5.55;2.95;;;3.80;99.90;;;;;;7573059;19;20018;-71
2023/12/20 19:09:37;;;;;;;3.73;2.37;;;3.80;99.90;;;;;;7573475;19;20020;-71
2023/12/20 19:12:09;;;;;;;8.27;2.13;;;3.70;99.90;;;;;;7572345;19;20306;-72
2023/12/20 19:14:43;;;;;;;4.72;2.55;;;3.80;99.90;;;;;;7574518;19;20966;-71
2023/12/20 19:17:15;;;;;;;;;;;3.80;99.90;;;;;;7573625;19;20102;-70
2023/12/20 19:19:47;;;;;;;6.78;2.40;;;3.70;99.90;;;;;;7573281;19;19915;-71
2023/12/20 19:22:20;;;;;;;6.47;2.40;;;3.70;99.90;;;;;;7570688;19;20026;-70
2023/12/20 19:24:52;;;;;;;10.23;3.65;;;3.60;99.90;;;;;;7575738;19;20574;-71
2023/12/20 19:27:25;;;;;;;5.78;2.67;;;3.60;99.90;;;;;;7559715;19;20026;-71
2023/12/20 19:29:58;;;;;;;25.80;9.20;;;3.70;99.90;;;;;;7564630;19;20018;-73
2023/12/20 19:32:30;;;;;;;3.55;2.03;;;3.70;99.90;;;;;;7554972;19;20022;-70
2023/12/20 19:35:03;;;;;;;8.70;3.35;;;3.90;99.90;;;;;;7535722;19;20022;-72
2023/12/20 19:37:35;;;;;;;6.87;3.50;;;4.00;99.90;;;;;;7536098;19;20029;-72
2023/12/20 19:40:10;;;;;;;4.87;2.43;;;3.90;99.90;;;;;;7548966;19;20082;-72
2023/12/20 19:42:42;;;;;;;9.88;3.78;;;3.90;99.90;;;;;;7558776;19;20473;-71
2023/12/20 19:45:16;;;;;;;9.07;3.65;;;3.90;99.90;;;;;;7564212;19;20015;-73
2023/12/20 19:47:50;;;;;;;7.00;3.60;;;3.90;99.90;;;;;;7578899;19;20482;-72